Time;durP1;ratioP1;P1;durP2;ratioP2;P2;SDS_P1;SDS_P2;PMS_P1;PMS_P2;Temp;Humidity;BMP_temperature;BMP_pressure;BME280_temperature;BME280_humidity;BME280_pressure;Samples;Min_cycle;Max_cycle;Signal;HPM_P1;HPM_P2
2022/09/11 16:19:57;;;;;;;28.10;14.90;;;;;;;;;;6319417;27;20514;-54
2022/09/11 16:22:57;;;;;;;26.67;13.88;;;;;;;;;;6296989;28;20113;-55
2022/09/11 16:26:03;;;;;;;28.52;13.75;;;;;;;;;;6296858;28;20048;-50
2022/09/11 16:29:07;;;;;;;27.23;13.43;;;;;;;;;;6295407;28;20131;-54
2022/09/11 16:32:08;;;;;;;27.15;13.48;;;;;;;;;;6298896;28;20152;-54
2022/09/11 16:35:12;;;;;;;28.30;13.60;;;;;;;;;;6299986;28;20087;-52
2022/09/11 16:38:12;;;;;;;31.13;14.77;;;;;;;;;;6293130;28;20044;-52
2022/09/11 16:41:17;;;;;;;33.80;14.88;;;;;;;;;;6296316;28;20255;-53
2022/09/11 16:44:18;;;;;;;28.45;12.90;;;;;;;;;;6299793;28;20040;-51
2022/09/11 16:47:19;;;;;;;31.67;14.80;;;;;;;;;;6297069;28;20047;-53
2022/09/11 16:50:20;;;;;;;35.13;14.93;;;;;;;;;;6296406;28;20410;-57
2022/09/11 16:53:21;;;;;;;38.10;17.20;;;;;;;;;;6299096;28;20089;-53
2022/09/11 16:56:23;;;;;;;42.03;17.93;;;;;;;;;;6297629;28;20428;-60
2022/09/11 16:59:25;;;;;;;45.55;19.15;;;;;;;;;;6297436;28;20285;-52
2022/09/11 17:02:25;;;;;;;46.60;20.25;;;;;;;;;;6298481;28;20516;-52
2022/09/11 17:05:26;;;;;;;46.40;20.85;;;;;;;;;;6299110;28;20059;-53
2022/09/11 17:08:27;;;;;;;47.17;19.88;;;;;;;;;;6295033;28;20452;-56
2022/09/11 17:11:29;;;;;;;42.97;18.05;;;;;;;;;;6300018;28;20049;-53
2022/09/11 17:14:30;;;;;;;32.53;14.35;;;;;;;;;;6297688;28;20502;-51
2022/09/11 17:17:31;;;;;;;27.77;13.95;;;;;;;;;;6292422;28;20071;-51
2022/09/11 17:20:33;;;;;;;27.33;13.75;;;;;;;;;;6282165;28;20051;-50
2022/09/11 17:23:35;;;;;;;27.50;13.20;;;;;;;;;;6279856;28;20055;-50
2022/09/11 17:26:36;;;;;;;29.15;13.80;;;;;;;;;;6280533;28;20044;-54
2022/09/11 17:29:37;;;;;;;30.92;13.82;;;;;;;;;;6277757;28;20048;-52
2022/09/11 17:32:38;;;;;;;32.28;13.90;;;;;;;;;;6280930;28;20056;-58
2022/09/11 17:35:39;;;;;;;31.10;15.27;;;;;;;;;;6279713;28;20152;-55
2022/09/11 17:38:39;;;;;;;33.45;15.60;;;;;;;;;;6274531;28;20057;-53
2022/09/11 17:41:40;;;;;;;31.88;16.02;;;;;;;;;;6281468;28;20570;-52
2022/09/11 17:44:41;;;;;;;30.30;14.25;;;;;;;;;;6280314;28;20045;-53
2022/09/11 17:47:42;;;;;;;30.75;13.73;;;;;;;;;;6274963;28;20781;-52
2022/09/11 17:50:43;;;;;;;29.35;13.40;;;;;;;;;;6281573;28;20650;-52
2022/09/11 17:53:52;;;;;;;30.67;14.45;;;;;;;;;;6279877;28;20167;-53
2022/09/11 17:56:54;;;;;;;32.35;14.93;;;;;;;;;;6278741;28;20067;-53
2022/09/11 17:59:55;;;;;;;33.80;16.02;;;;;;;;;;6277477;28;20070;-53
2022/09/11 18:02:57;;;;;;;32.22;15.23;;;;;;;;;;6280181;28;20045;-55
2022/09/11 18:05:59;;;;;;;29.80;14.15;;;;;;;;;;6278248;28;20498;-61
2022/09/11 18:09:15;;;;;;;30.60;13.15;;;;;;;;;;6275296;28;20063;-55
2022/09/11 18:12:15;;;;;;;26.77;12.40;;;;;;;;;;6278737;28;20505;-61
2022/09/11 18:15:16;;;;;;;27.95;12.23;;;;;;;;;;6279083;28;20128;-56
2022/09/11 18:18:18;;;;;;;28.52;12.88;;;;;;;;;;6274499;28;20119;-51
2022/09/11 18:21:18;;;;;;;24.98;12.68;;;;;;;;;;6278534;28;20868;-54
2022/09/11 18:24:19;;;;;;;23.08;10.88;;;;;;;;;;6276858;28;20041;-55
2022/09/11 18:27:20;;;;;;;27.73;11.70;;;;;;;;;;6277626;28;20080;-54
2022/09/11 18:30:21;;;;;;;22.60;11.02;;;;;;;;;;6277642;28;20072;-54
2022/09/11 18:33:21;;;;;;;24.38;11.50;;;;;;;;;;6281292;28;20785;-54
2022/09/11 18:36:23;;;;;;;20.42;10.02;;;;;;;;;;6280324;28;20491;-51
2022/09/11 18:39:24;;;;;;;23.33;11.65;;;;;;;;;;6276812;28;20036;-52
2022/09/11 18:42:24;;;;;;;23.40;11.27;;;;;;;;;;6280727;28;20083;-52
2022/09/11 18:45:29;;;;;;;21.17;10.40;;;;;;;;;;6278861;28;20036;-55
2022/09/11 18:48:30;;;;;;;24.08;12.35;;;;;;;;;;6274869;28;20044;-60
2022/09/11 18:51:30;;;;;;;28.75;13.10;;;;;;;;;;6278373;28;20048;-60
2022/09/11 18:54:32;;;;;;;22.10;11.52;;;;;;;;;;6279888;28;20528;-53
2022/09/11 18:57:33;;;;;;;27.65;12.77;;;;;;;;;;6278561;28;20117;-52
2022/09/11 19:00:35;;;;;;;32.17;14.65;;;;;;;;;;6278899;28;20560;-52
2022/09/11 19:03:39;;;;;;;37.08;15.68;;;;;;;;;;6279662;28;20286;-51
2022/09/11 19:06:39;;;;;;;35.63;15.80;;;;;;;;;;6277317;28;20101;-55
2022/09/11 19:09:40;;;;;;;41.10;18.83;;;;;;;;;;6270770;28;21280;-61
2022/09/11 19:12:40;;;;;;;39.45;16.65;;;;;;;;;;6271422;28;20056;-53
2022/09/11 19:15:41;;;;;;;35.65;16.00;;;;;;;;;;6272384;28;20064;-51
2022/09/11 19:18:42;;;;;;;31.95;15.35;;;;;;;;;;6269326;28;20609;-55
2022/09/11 19:21:43;;;;;;;26.75;12.75;;;;;;;;;;6274727;28;20973;-61
2022/09/11 19:24:44;;;;;;;26.10;11.65;;;;;;;;;;6276957;28;20152;-56
2022/09/11 19:27:44;;;;;;;25.42;12.15;;;;;;;;;;6265794;28;20124;-53
2022/09/11 19:30:57;;;;;;;24.75;11.77;;;;;;;;;;6268615;28;20040;-53
2022/09/11 19:34:02;;;;;;;28.42;11.95;;;;;;;;;;6270015;28;20053;-51
2022/09/11 19:37:02;;;;;;;24.30;11.80;;;;;;;;;;6268036;28;20037;-57
2022/09/11 19:40:05;;;;;;;34.92;12.20;;;;;;;;;;6265240;28;21467;-53
2022/09/11 19:43:06;;;;;;;22.15;12.00;;;;;;;;;;6270602;28;20056;-51
2022/09/11 19:46:09;;;;;;;34.15;13.15;;;;;;;;;;6272874;28;20123;-52
2022/09/11 19:49:10;;;;;;;27.00;13.23;;;;;;;;;;6270393;28;20051;-49
2022/09/11 19:52:12;;;;;;;30.50;13.85;;;;;;;;;;6273842;28;20040;-59
2022/09/11 19:55:13;;;;;;;32.67;14.40;;;;;;;;;;6273304;28;20174;-50
2022/09/11 19:58:13;;;;;;;31.55;14.15;;;;;;;;;;6270235;28;20049;-50
2022/09/11 20:01:17;;;;;;;30.83;14.02;;;;;;;;;;6271570;28;20075;-52
2022/09/11 20:04:18;;;;;;;26.50;13.13;;;;;;;;;;6272304;28;20573;-50
2022/09/11 20:07:18;;;;;;;28.98;13.52;;;;;;;;;;6271982;28;20059;-51
2022/09/11 20:10:19;;;;;;;28.48;13.32;;;;;;;;;;6272014;28;20044;-51
2022/09/11 20:13:20;;;;;;;28.98;13.18;;;;;;;;;;6273477;28;20495;-50
2022/09/11 20:16:22;;;;;;;26.88;12.45;;;;;;;;;;6272965;28;20408;-52
2022/09/11 20:19:23;;;;;;;22.90;11.25;;;;;;;;;;6268234;28;20049;-58
2022/09/11 20:22:24;;;;;;;25.00;12.18;;;;;;;;;;6268222;28;20155;-49
2022/09/11 20:25:25;;;;;;;24.45;11.10;;;;;;;;;;6278826;28;20098;-61
2022/09/11 20:28:25;;;;;;;24.52;12.35;;;;;;;;;;6266695;28;20040;-59
2022/09/11 20:31:29;;;;;;;23.23;12.13;;;;;;;;;;6275995;28;20091;-60
2022/09/11 20:34:30;;;;;;;32.08;12.95;;;;;;;;;;6284012;28;20805;-52
2022/09/11 20:37:32;;;;;;;29.42;12.35;;;;;;;;;;6286321;28;20569;-58
2022/09/11 20:40:35;;;;;;;23.90;12.77;;;;;;;;;;6286099;28;20486;-57
2022/09/11 20:43:36;;;;;;;26.58;12.75;;;;;;;;;;6287392;28;20124;-61
2022/09/11 20:46:36;;;;;;;28.13;12.90;;;;;;;;;;6289020;28;20037;-60
2022/09/11 20:49:37;;;;;;;28.15;12.52;;;;;;;;;;6287030;28;20123;-56
2022/09/11 20:52:38;;;;;;;22.92;12.45;;;;;;;;;;6288344;28;20049;-63
2022/09/11 20:55:38;;;;;;;25.58;11.77;;;;;;;;;;6289839;28;20372;-62
2022/09/11 20:58:39;;;;;;;30.33;13.82;;;;;;;;;;6291991;28;20033;-57
2022/09/11 21:01:39;;;;;;;26.83;13.02;;;;;;;;;;6291726;28;20044;-53
2022/09/11 21:04:40;;;;;;;29.38;13.18;;;;;;;;;;6294363;28;20040;-62
2022/09/11 21:07:41;;;;;;;26.60;13.68;;;;;;;;;;6294617;28;20049;-54
2022/09/11 21:10:41;;;;;;;29.73;13.77;;;;;;;;;;6291320;28;20093;-51
2022/09/11 21:13:42;;;;;;;34.83;14.65;;;;;;;;;;6294667;28;20048;-53
2022/09/11 21:16:43;;;;;;;28.23;13.27;;;;;;;;;;6292831;28;20036;-56
2022/09/11 21:19:43;;;;;;;31.65;13.85;;;;;;;;;;6291702;28;20052;-60
2022/09/11 21:22:44;;;;;;;32.15;14.10;;;;;;;;;;6292489;28;20131;-57
2022/09/11 21:25:44;;;;;;;31.27;14.02;;;;;;;;;;6293409;28;20143;-56
2022/09/11 21:28:45;;;;;;;32.85;13.60;;;;;;;;;;6292861;28;20049;-51
2022/09/11 21:31:46;;;;;;;27.00;13.57;;;;;;;;;;6287978;28;20143;-53
2022/09/11 21:34:47;;;;;;;28.13;12.38;;;;;;;;;;6289431;28;20136;-56
2022/09/11 21:37:47;;;;;;;34.95;13.68;;;;;;;;;;6291546;28;20148;-57
2022/09/11 21:40:48;;;;;;;29.33;13.13;;;;;;;;;;6290285;28;20048;-53
2022/09/11 21:43:48;;;;;;;33.33;14.07;;;;;;;;;;6292165;28;20063;-57
2022/09/11 21:46:49;;;;;;;28.35;13.57;;;;;;;;;;6293720;28;20040;-60
2022/09/11 21:49:49;;;;;;;28.75;12.75;;;;;;;;;;6288356;28;20524;-59
2022/09/11 21:52:50;;;;;;;29.88;13.02;;;;;;;;;;6293969;28;20052;-52
2022/09/11 21:55:51;;;;;;;32.50;13.33;;;;;;;;;;6293952;28;20143;-50
2022/09/11 21:58:52;;;;;;;25.65;12.65;;;;;;;;;;6301804;28;20048;-59
2022/09/11 22:01:53;;;;;;;32.80;14.55;;;;;;;;;;6286902;28;20139;-56
2022/09/11 22:04:53;;;;;;;29.77;12.63;;;;;;;;;;6288618;28;20048;-50
2022/09/11 22:07:55;;;;;;;28.40;13.48;;;;;;;;;;6287745;28;20080;-54
2022/09/11 22:10:55;;;;;;;26.80;12.93;;;;;;;;;;6285654;28;20115;-52
2022/09/11 22:13:56;;;;;;;29.67;13.00;;;;;;;;;;6285770;28;20482;-52
2022/09/11 22:16:56;;;;;;;26.63;12.85;;;;;;;;;;6286905;28;20418;-54
2022/09/11 22:19:57;;;;;;;31.13;13.32;;;;;;;;;;6283601;28;20118;-53
2022/09/11 22:22:59;;;;;;;29.65;12.68;;;;;;;;;;6286207;28;20379;-54
2022/09/11 22:26:09;;;;;;;26.40;12.63;;;;;;;;;;6287434;28;20418;-53
2022/09/11 22:29:10;;;;;;;28.75;12.85;;;;;;;;;;6287680;28;20045;-56
2022/09/11 22:32:10;;;;;;;28.33;13.35;;;;;;;;;;6287066;28;20038;-59
2022/09/11 22:35:12;;;;;;;27.40;12.55;;;;;;;;;;6286247;28;20163;-50
2022/09/11 22:38:12;;;;;;;29.45;14.32;;;;;;;;;;6285166;28;20140;-52
2022/09/11 22:41:13;;;;;;;24.20;12.45;;;;;;;;;;6283707;28;20075;-57
2022/09/11 22:44:13;;;;;;;29.27;13.32;;;;;;;;;;6285399;28;20048;-54
2022/09/11 22:47:14;;;;;;;25.85;12.90;;;;;;;;;;6285668;28;20044;-54
2022/09/11 22:50:15;;;;;;;29.33;13.88;;;;;;;;;;6284652;28;20367;-57
2022/09/11 22:53:15;;;;;;;26.50;12.50;;;;;;;;;;6288635;28;20040;-60
2022/09/11 22:56:16;;;;;;;30.73;13.60;;;;;;;;;;6285823;28;20052;-53
2022/09/11 22:59:17;;;;;;;32.75;13.52;;;;;;;;;;6284794;28;20094;-51
2022/09/11 23:02:17;;;;;;;28.77;12.93;;;;;;;;;;6285811;28;20143;-53
2022/09/11 23:08:38;;;;;;;31.20;13.63;;;;;;;;;;6287879;28;20222;-60
2022/09/11 23:11:39;;;;;;;32.22;14.63;;;;;;;;;;6287909;28;20051;-60
2022/09/11 23:14:39;;;;;;;31.58;14.65;;;;;;;;;;6291870;28;20056;-51
2022/09/11 23:17:40;;;;;;;27.23;13.95;;;;;;;;;;6289883;28;20137;-51
2022/09/11 23:20:41;;;;;;;32.17;14.98;;;;;;;;;;6282574;28;20052;-54
2022/09/11 23:23:42;;;;;;;34.38;14.82;;;;;;;;;;6284273;28;20128;-51
2022/09/11 23:26:44;;;;;;;36.03;15.27;;;;;;;;;;6284438;28;20033;-50
2022/09/11 23:29:44;;;;;;;34.17;15.43;;;;;;;;;;6283670;28;20167;-51
2022/09/11 23:32:45;;;;;;;36.83;15.77;;;;;;;;;;6284737;28;20413;-50
2022/09/11 23:35:46;;;;;;;34.83;15.52;;;;;;;;;;6284079;28;20194;-51
2022/09/11 23:38:47;;;;;;;33.55;15.30;;;;;;;;;;6281528;28;20118;-51
2022/09/11 23:41:48;;;;;;;38.67;15.98;;;;;;;;;;6284264;28;20048;-52
2022/09/11 23:44:49;;;;;;;38.33;15.65;;;;;;;;;;6285028;28;20043;-51
2022/09/11 23:47:49;;;;;;;38.95;14.98;;;;;;;;;;6285554;28;20509;-57
2022/09/11 23:50:50;;;;;;;33.60;15.00;;;;;;;;;;6282719;28;20412;-51
2022/09/11 23:53:50;;;;;;;34.95;15.95;;;;;;;;;;6284317;28;20029;-57
2022/09/11 23:56:51;;;;;;;36.40;15.65;;;;;;;;;;6287119;28;20058;-55
2022/09/11 23:59:52;;;;;;;33.55;15.52;;;;;;;;;;6282169;28;20190;-51
